Arispe, Iowa
Current Conditions -  °F | °C
As of 4:35 AM on Monday 26 Jan 2015 (Local Time) from KCSQ Reporting Station
Overcast Overcast  
Wind Chill: 18°   Ceiling: 1300
Heat Index: 28°   Visibility: 10mi
Dew Point: 28°   Wind: 12mph
Humidity: 100%   Direction: 230°SW
Pressure: 29.98"   Gusts: 18mph
Location:  40.95°N, 94.22°W
Report Text: KCSQ 261035Z AUTO 23010G16KT 10SM OVC013 M02/M02 A2998 RMK AO2
Loading
Personal Weather Stations






























Interactive Weather Map New forecast layout! Learn more

10-Day Weather Forecast

Advertisements
Track Severe Weather on mobile